Overview Statistics Trail Chart Weather Telemetry Raw packets
 

This is the latest recevied weather packets stored in our database for station/object W7BTL. If no packets are shown the sender has not sent any weather packets the latest 10 day(s).

<< 96 97 98 99 100 101 102 >>
Time Temp. Humidity Pressure Rain* Wind** Luminosity Snow
1787935589 31.67° C 58% 1011.3 hPa 0 mm - 593 W/m² -
1787935285 31.67° C 55% 1011.3 hPa 0 mm - 572 W/m² -
1787934981 31.67° C 58% 1011.5 hPa 0 mm - 550 W/m² -
1787934676 32.22° C 54% 1011.2 hPa 0 mm - 529 W/m² -
1787934375 31.67° C 57% 1011.1 hPa 0 mm - 379 W/m² -
1787934074 31.11° C 57% 1011.1 hPa 0 mm - 485 W/m² -
1787933773 30.56° C 59% 1011.2 hPa 0 mm - 463 W/m² -
1787933469 30.56° C 58% 1011.4 hPa 0 mm - 443 W/m² -
1787933169 30° C 59% 1011 hPa 0 mm - 422 W/m² -
1787932864 30° C 63% 1011.2 hPa 0 mm - 394 W/m² -
1787932562 29.44° C 63% 1011.1 hPa 0 mm - 369 W/m² -
1787932257 29.44° C 64% 1011.1 hPa 0 mm - 347 W/m² -
1787931956 29.44° C 63% 1011.3 hPa 0 mm - 325 W/m² -
1787931656 28.89° C 63% 1011.2 hPa 0 mm - 306 W/m² -
1787931350 28.89° C 64% 1011.4 hPa 0 mm - 284 W/m² -
1787931045 28.89° C 64% 1011.3 hPa 0 mm - 264 W/m² -
1787930744 28.33° C 66% 1011.3 hPa 0 mm - 243 W/m² -
1787930439 28.89° C 63% 1011.4 hPa 0 mm - 225 W/m² -
1787930134 28.89° C 63% 1011.3 hPa 0 mm - 208 W/m² -
1787929833 29.44° C 62% 1011.3 hPa 0 mm - 190 W/m² -
1787929528 29.44° C 62% 1011.5 hPa 0 mm - 175 W/m² -
1787929227 29.44° C 63% 1011.4 hPa 0 mm - 159 W/m² -
1787928926 28.89° C 63% 1011.4 hPa 0 mm - 146 W/m² -
1787928621 28.89° C 64% 1011.6 hPa 0 mm - 133 W/m² -
1787928319 28.33° C 65% 1011.5 hPa 0 mm - 120 W/m² -

* Rain latest hour (hover to see other rain measurements)
** Current wind speed in m/s (hover to see current wind gust speed)